East Keating, Pennsylvania
Current Conditions -  °F | °C
As of 12:54 AM on Wednesday 28 Jan 2015 (Local Time) from KFIG Reporting Station
Clear Clear  
Wind Chill:   Ceiling: Unl
Heat Index:   Visibility: 10mi
Dew Point:   Wind: 5mph
Humidity: 77%   Direction: 220°SW
Pressure: 30.04"   Gusts: NA
Location:  41.3342°N, 77.9676°W
Report Text: KFIG 280554Z AUTO 22004KT 10SM CLR M13/M16 A3004 RMK AO2 SLP202 T11281161 11072 21128 51017
Loading
Personal Weather Stations






























Interactive Weather Map New forecast layout! Learn more

10-Day Weather Forecast

Advertisements
Track Severe Weather on mobile